Time;durP1;ratioP1;P1;durP2;ratioP2;P2;SDS_P1;SDS_P2;PMS_P1;PMS_P2;Temp;Humidity;BMP_temperature;BMP_pressure;BME280_temperature;BME280_humidity;BME280_pressure;Samples;Min_cycle;Max_cycle;Signal;HPM_P1;HPM_P2
2022/08/29 00:00:03;;;;;;;11.73;7.20;;;;;;;16.74;82.71;100391.64;2070226;86;32785;-62
2022/08/29 00:03:07;;;;;;;15.13;8.33;;;;;;;16.67;82.69;100393.94;2032660;87;27813;-62
2022/08/29 00:06:08;;;;;;;13.65;7.35;;;;;;;16.60;82.75;100392.68;2070471;86;27613;-62
2022/08/29 00:09:10;;;;;;;13.53;7.53;;;;;;;16.52;82.80;100390.55;2068538;86;30200;-63
2022/08/29 00:12:11;;;;;;;17.12;8.08;;;;;;;16.47;82.87;100396.77;2068491;86;31168;-63
2022/08/29 00:15:13;;;;;;;22.37;7.62;;;;;;;16.39;82.92;100397.33;2068485;86;33331;-64
2022/08/29 00:18:16;;;;;;;20.88;8.00;;;;;;;16.34;82.98;100390.03;2068416;85;29348;-63
2022/08/29 00:21:18;;;;;;;17.00;7.20;;;;;;;16.28;83.01;100398.60;2068520;86;27648;-63
2022/08/29 00:24:19;;;;;;;15.18;7.87;;;;;;;16.23;83.09;100400.77;2068174;86;29914;-63
2022/08/29 00:27:21;;;;;;;11.38;7.37;;;;;;;16.18;83.17;100404.27;2068478;86;32038;-63
2022/08/29 00:30:23;;;;;;;14.23;7.60;;;;;;;16.12;83.30;100402.87;2068201;86;33720;-61
2022/08/29 00:33:24;;;;;;;18.32;8.10;;;;;;;16.08;83.00;100402.71;2068805;86;29872;-61
2022/08/29 00:36:26;;;;;;;15.05;7.95;;;;;;;16.04;83.39;100401.22;2068298;86;27671;-61
2022/08/29 00:39:27;;;;;;;23.90;9.08;;;;;;;16.00;83.38;100405.11;2069751;86;29198;-62
2022/08/29 00:42:30;;;;;;;13.98;8.03;;;;;;;15.93;83.51;100408.23;2070345;86;31484;-62
2022/08/29 00:45:33;;;;;;;14.15;7.87;;;;;;;15.89;83.53;100409.41;2069859;86;33874;-62
2022/08/29 00:48:37;;;;;;;19.55;8.10;;;;;;;15.85;83.59;100405.22;2102557;84;29336;-61
2022/08/29 00:51:39;;;;;;;;;;;;;;;15.82;83.54;100413.50;2106821;84;27658;-61
2022/08/29 00:54:43;;;;;;;14.05;7.55;;;;;;;15.77;83.67;100413.83;2104172;84;29883;-61
2022/08/29 00:57:49;;;;;;;13.45;7.65;;;;;;;15.71;83.78;100415.59;2104393;84;31452;-61
2022/08/29 01:00:52;;;;;;;20.50;7.92;;;;;;;15.68;83.87;100415.80;2104263;84;33348;-61
2022/08/29 01:03:54;;;;;;;13.95;7.05;;;;;;;15.66;83.91;100417.74;2104158;84;29351;-61
2022/08/29 01:06:56;;;;;;;16.32;6.90;;;;;;;15.45;84.03;100399.84;2080068;84;27869;-61
2022/08/29 01:09:57;;;;;;;15.72;7.08;;;;;;;15.45;84.03;100399.84;2101949;84;29332;-61
2022/08/29 01:12:59;;;;;;;22.20;9.85;;;;;;;15.55;84.02;100421.68;2072519;85;31174;-61
2022/08/29 01:16:03;;;;;;;15.35;8.13;;;;;;;15.47;83.87;100416.31;2072505;85;33380;-61
2022/08/29 01:19:18;;;;;;;18.00;7.47;;;;;;;15.47;83.87;100416.31;2072525;85;29334;-61
2022/08/29 01:22:53;;;;;;;10.78;7.50;;;;;;;15.44;84.03;100421.06;2070697;85;27672;-61
2022/08/29 01:25:55;;;;;;;12.58;8.25;;;;;;;15.40;84.13;100419.53;2072289;85;29913;-61
2022/08/29 01:28:57;;;;;;;13.55;7.50;;;;;;;15.36;84.18;100417.53;2072482;85;31236;-61
2022/08/29 01:31:58;;;;;;;15.70;7.35;;;;;;;15.33;84.21;100422.67;2072339;85;33948;-61
2022/08/29 01:35:00;;;;;;;17.62;7.50;;;;;;;15.30;84.25;100424.72;2072256;85;29435;-62
2022/08/29 01:38:01;;;;;;;13.30;7.25;;;;;;;15.27;84.22;100416.83;2073107;85;27761;-61
2022/08/29 01:41:04;;;;;;;15.63;8.00;;;;;;;15.24;84.30;100423.27;2074204;85;29035;-61
2022/08/29 01:44:13;;;;;;;16.40;7.83;;;;;;;15.22;84.31;100426.59;2074380;85;31198;-61
2022/08/29 01:47:17;;;;;;;14.47;8.00;;;;;;;15.18;84.39;100421.00;2058398;85;32967;-61
2022/08/29 01:50:20;;;;;;;17.00;7.90;;;;;;;15.17;84.49;100429.57;2035185;87;30311;-61
2022/08/29 01:53:22;;;;;;;15.18;7.10;;;;;;;15.15;84.45;100434.20;2082404;85;27611;-61
2022/08/29 01:56:28;;;;;;;15.32;8.00;;;;;;;15.13;84.58;100424.02;2082467;85;28840;-61
2022/08/29 01:59:30;;;;;;;12.25;7.80;;;;;;;15.11;84.58;100421.91;2081996;85;31397;-63
2022/08/29 02:02:33;;;;;;;17.57;8.38;;;;;;;15.10;84.57;100428.73;2080067;85;34346;-63
2022/08/29 02:05:35;;;;;;;11.40;7.05;;;;;;;15.07;84.65;100424.88;2080123;85;30601;-63
2022/08/29 02:08:42;;;;;;;14.45;7.87;;;;;;;15.05;84.62;100425.00;2080440;85;27739;-63
2022/08/29 02:11:46;;;;;;;11.20;6.90;;;;;;;15.03;84.68;100422.42;2080529;85;28636;-61
2022/08/29 02:14:49;;;;;;;18.85;8.15;;;;;;;15.00;84.73;100416.34;2034213;87;31179;-60
2022/08/29 02:17:51;;;;;;;11.03;7.12;;;;;;;14.97;84.75;100420.61;2053171;85;34043;-62
2022/08/29 02:20:53;;;;;;;16.02;7.20;;;;;;;14.94;84.91;100424.36;2080413;85;29866;-61
2022/08/29 02:23:58;;;;;;;18.20;7.87;;;;;;;14.81;85.01;100402.72;2080140;85;27648;-61
2022/08/29 02:27:00;;;;;;;18.70;8.55;;;;;;;14.93;85.04;100433.41;2080434;84;28716;-61
2022/08/29 02:30:01;;;;;;;16.50;7.30;;;;;;;14.93;85.04;100433.41;2080952;85;32272;-61
2022/08/29 02:33:03;;;;;;;14.60;7.90;;;;;;;14.91;84.98;100437.19;2082286;85;34115;-60
2022/08/29 02:36:06;;;;;;;12.30;7.72;;;;;;;14.91;85.09;100437.19;2082204;85;30446;-61
2022/08/29 02:39:08;;;;;;;14.95;7.25;;;;;;;14.88;85.09;100433.73;2081968;85;27622;-61
2022/08/29 02:42:10;;;;;;;13.62;8.58;;;;;;;14.88;85.16;100440.97;2081983;85;29760;-61
2022/08/29 02:45:12;;;;;;;15.08;7.70;;;;;;;14.87;85.19;100445.98;2081800;85;33098;-61
2022/08/29 02:48:14;;;;;;;12.43;7.00;;;;;;;14.86;85.23;100445.09;2095197;84;33056;-61
2022/08/29 02:51:28;;;;;;;11.97;7.97;;;;;;;14.85;85.26;100442.02;2104435;84;30622;-61
2022/08/29 02:54:30;;;;;;;12.50;8.00;;;;;;;14.84;85.32;100438.93;2104317;84;37072;-62
2022/08/29 02:57:31;;;;;;;13.43;7.80;;;;;;;14.83;85.33;100445.29;2104639;84;29103;-61
2022/08/29 03:00:34;;;;;;;13.03;8.08;;;;;;;14.69;85.33;100423.75;2102921;84;31534;-61
2022/08/29 03:03:36;;;;;;;17.55;7.75;;;;;;;14.69;85.33;100423.75;2102501;84;32975;-61
2022/08/29 03:06:37;;;;;;;18.65;8.53;;;;;;;14.80;85.47;100448.22;2078574;84;31037;-61
2022/08/29 03:09:38;;;;;;;14.58;8.50;;;;;;;14.80;85.56;100446.86;2102580;84;27675;-61
2022/08/29 03:12:40;;;;;;;14.40;9.20;;;;;;;14.84;85.87;100445.67;2072329;85;29131;-61
2022/08/29 03:15:41;;;;;;;16.82;8.63;;;;;;;14.87;86.07;100448.67;2072488;85;31452;-61
2022/08/29 03:18:43;;;;;;;21.90;8.10;;;;;;;14.91;86.14;100450.19;2072895;85;33615;-61
2022/08/29 03:21:46;;;;;;;12.78;7.85;;;;;;;14.93;86.01;100446.91;2072310;85;29775;-61
2022/08/29 03:24:47;;;;;;;15.50;8.63;;;;;;;14.93;85.95;100449.60;2072690;85;27720;-61
2022/08/29 03:27:51;;;;;;;20.10;9.05;;;;;;;14.93;85.88;100451.45;2072261;85;28607;-61
2022/08/29 03:30:53;;;;;;;12.00;8.30;;;;;;;14.90;86.05;100451.14;2073327;85;31482;-61
2022/08/29 03:33:55;;;;;;;19.10;8.60;;;;;;;14.87;85.17;100451.38;2074050;85;34178;-62
2022/08/29 03:36:56;;;;;;;17.17;8.45;;;;;;;14.87;85.17;100451.38;2074210;85;29374;-62
2022/08/29 03:39:58;;;;;;;15.80;7.90;;;;;;;14.86;85.75;100462.62;2074842;85;27658;-62
2022/08/29 03:42:59;;;;;;;14.13;7.85;;;;;;;14.81;85.55;100467.95;2074368;85;28669;-62
2022/08/29 03:46:03;;;;;;;13.75;7.37;;;;;;;14.78;85.67;100473.53;2074071;85;32282;-62
2022/08/29 03:49:06;;;;;;;21.60;8.68;;;;;;;14.78;85.67;100473.53;2044179;85;33370;-62
2022/08/29 03:52:08;;;;;;;12.70;8.05;;;;;;;14.74;85.49;100471.02;2035393;87;30327;-62
2022/08/29 03:55:11;;;;;;;16.35;8.68;;;;;;;14.70;85.47;100473.56;2082312;85;28203;-62
2022/08/29 03:58:13;;;;;;;12.82;8.15;;;;;;;14.67;85.54;100471.02;2035459;87;28651;-62
2022/08/29 04:01:16;;;;;;;13.62;8.78;;;;;;;14.59;85.59;100457.15;2080458;85;31857;-62
2022/08/29 04:07:50;;;;;;;18.95;8.58;;;;;;;14.56;85.38;100464.96;2080036;85;30492;-62
2022/08/29 04:10:52;;;;;;;15.65;8.43;;;;;;;14.55;85.61;100471.81;2079256;85;27711;-62
2022/08/29 04:13:54;;;;;;;16.62;9.15;;;;;;;14.52;85.59;100474.20;2079996;85;28617;-61
2022/08/29 04:16:55;;;;;;;15.38;7.92;;;;;;;14.50;85.70;100471.23;2080352;85;31561;-62
2022/08/29 04:19:58;;;;;;;17.85;8.85;;;;;;;14.49;85.70;100477.59;2079872;85;34320;-62
2022/08/29 04:23:00;;;;;;;18.27;8.28;;;;;;;14.48;85.85;100472.66;2080230;85;29543;-61
2022/08/29 04:26:03;;;;;;;19.30;8.88;;;;;;;14.49;85.93;100482.48;2080113;85;27609;-62
2022/08/29 04:29:10;;;;;;;17.67;8.85;;;;;;;14.54;86.17;100486.26;2080113;85;28696;-62
2022/08/29 04:32:12;;;;;;;14.18;9.03;;;;;;;14.54;86.17;100486.26;2082128;85;31060;-62
2022/08/29 04:35:15;;;;;;;15.38;9.08;;;;;;;14.49;86.25;100473.54;2082082;85;33363;-62
2022/08/29 04:38:16;;;;;;;15.98;8.78;;;;;;;14.49;86.25;100473.54;2082043;85;29455;-62
2022/08/29 04:41:18;;;;;;;16.65;9.48;;;;;;;14.66;86.31;100494.91;2082132;85;27702;-61
2022/08/29 04:44:19;;;;;;;16.52;8.58;;;;;;;14.64;86.38;100474.41;2082052;85;29103;-62
2022/08/29 04:47:21;;;;;;;19.92;9.65;;;;;;;14.76;86.35;100492.52;2079537;84;31092;-62
2022/08/29 04:50:23;;;;;;;16.25;9.75;;;;;;;14.82;86.41;100493.95;2068200;86;34225;-62
2022/08/29 04:53:26;;;;;;;17.27;10.03;;;;;;;14.86;86.42;100492.30;2068129;86;30815;-62
2022/08/29 04:56:28;;;;;;;16.62;10.15;;;;;;;14.93;86.47;100497.30;2068208;85;28065;-62
2022/08/29 04:59:29;;;;;;;21.52;10.65;;;;;;;14.93;86.52;100490.06;2069329;86;29357;-63
2022/08/29 05:02:31;;;;;;;17.35;9.70;;;;;;;15.07;86.51;100503.13;2050871;86;31070;-63
2022/08/29 05:05:32;;;;;;;18.52;9.48;;;;;;;15.13;86.58;100503.62;2032442;87;34330;-63
2022/08/29 05:08:36;;;;;;;20.75;10.38;;;;;;;15.23;86.61;100509.25;2069955;86;30671;-63
2022/08/29 05:11:39;;;;;;;16.60;10.88;;;;;;;15.33;86.55;100517.61;2070344;86;27785;-62
2022/08/29 05:14:40;;;;;;;15.38;10.15;;;;;;;15.44;86.67;100516.91;2069947;85;29912;-62
2022/08/29 05:17:43;;;;;;;19.70;9.45;;;;;;;15.59;86.53;100516.38;2070328;86;31189;-62
2022/08/29 05:20:47;;;;;;;17.37;10.10;;;;;;;15.75;86.79;100517.53;2032580;87;33412;-62
2022/08/29 05:23:50;;;;;;;17.50;10.20;;;;;;;15.91;86.50;100522.30;2068696;86;30496;-62
2022/08/29 05:26:52;;;;;;;17.00;9.40;;;;;;;16.04;86.34;100520.98;2068773;85;28147;-62
2022/08/29 05:29:53;;;;;;;15.80;8.98;;;;;;;16.16;86.06;100534.13;2068277;86;29723;-62
2022/08/29 05:32:55;;;;;;;15.65;8.73;;;;;;;16.24;85.95;100531.75;2068579;86;32229;-62
2022/08/29 05:35:57;;;;;;;14.78;8.60;;;;;;;16.32;85.81;100538.47;2068330;86;33049;-62
2022/08/29 05:39:00;;;;;;;12.55;8.35;;;;;;;16.38;85.60;100539.41;2068703;86;29393;-63
2022/08/29 05:42:02;;;;;;;19.45;8.90;;;;;;;16.46;85.57;100534.80;2068649;86;27669;-63
2022/08/29 05:45:05;;;;;;;15.45;8.53;;;;;;;16.52;85.32;100533.00;2068458;86;29909;-62
2022/08/29 05:48:09;;;;;;;19.37;8.28;;;;;;;16.55;85.08;100534.98;2076064;84;31041;-62
2022/08/29 05:51:18;;;;;;;16.65;8.55;;;;;;;16.59;84.79;100532.07;2102395;84;32996;-63
2022/08/29 05:54:20;;;;;;;15.83;8.15;;;;;;;16.65;84.79;100536.55;2103634;84;28347;-62
2022/08/29 05:57:22;;;;;;;12.90;8.08;;;;;;;16.77;84.91;100532.11;2074543;85;27714;-63
2022/08/29 06:00:24;;;;;;;16.73;7.78;;;;;;;16.85;84.82;100535.14;2074734;85;28660;-63
2022/08/29 06:03:25;;;;;;;14.80;7.90;;;;;;;16.98;84.50;100537.83;2074266;85;31080;-63
2022/08/29 06:06:28;;;;;;;14.33;7.83;;;;;;;17.07;84.39;100537.64;2074422;85;34093;-63
2022/08/29 06:09:30;;;;;;;13.03;6.92;;;;;;;17.19;84.13;100548.06;2074460;85;29333;-63
2022/08/29 06:12:32;;;;;;;13.95;6.83;;;;;;;17.29;83.84;100545.55;2074222;85;27524;-63
2022/08/29 06:15:33;;;;;;;19.30;8.45;;;;;;;17.42;83.65;100545.00;2074321;85;29039;-63
2022/08/29 06:18:35;;;;;;;15.03;7.20;;;;;;;17.55;83.29;100547.66;2074420;85;31446;-63
2022/08/29 06:21:37;;;;;;;15.05;6.90;;;;;;;17.73;83.18;100542.69;2073859;85;33430;-63
2022/08/29 06:24:39;;;;;;;14.20;6.90;;;;;;;17.94;83.08;100546.60;2072658;85;29721;-63
2022/08/29 06:27:40;;;;;;;13.72;6.45;;;;;;;18.15;82.75;100556.30;2072334;85;27628;-64
2022/08/29 06:30:42;;;;;;;16.15;6.40;;;;;;;18.40;82.37;100557.96;2072477;85;28687;-63
2022/08/29 06:33:44;;;;;;;14.63;6.50;;;;;;;18.66;81.78;100563.16;2072543;85;30435;-64
2022/08/29 06:36:45;;;;;;;12.85;6.15;;;;;;;18.97;81.64;100572.94;2072588;85;33465;-64
2022/08/29 06:39:46;;;;;;;11.97;6.03;;;;;;;19.32;81.16;100569.70;2072495;85;29309;-64
2022/08/29 06:42:48;;;;;;;11.48;5.20;;;;;;;19.66;80.51;100577.27;2072509;85;28198;-64
2022/08/29 06:45:49;;;;;;;12.90;5.55;;;;;;;20.01;79.25;100573.45;2072621;85;29001;-64
2022/08/29 06:48:51;;;;;;;14.50;5.67;;;;;;;20.37;78.96;100581.80;2059415;85;31424;-64
2022/08/29 06:51:53;;;;;;;11.48;4.42;;;;;;;20.76;78.13;100583.43;2080467;85;34159;-63
2022/08/29 06:54:56;;;;;;;8.65;4.72;;;;;;;21.14;77.60;100590.53;2081864;85;30646;-64
2022/08/29 06:57:57;;;;;;;10.23;4.80;;;;;;;21.56;76.64;100593.06;2082498;85;27674;-63
2022/08/29 07:00:58;;;;;;;14.93;5.00;;;;;;;21.92;75.98;100600.77;2082656;85;28678;-64
2022/08/29 07:04:02;;;;;;;9.85;5.25;;;;;;;22.18;74.37;100603.75;2081796;85;31903;-64
2022/08/29 07:07:04;;;;;;;9.30;4.72;;;;;;;22.43;74.13;100602.32;2082169;85;33504;-64
2022/08/29 07:10:07;;;;;;;14.85;4.60;;;;;;;22.68;73.08;100598.61;2081924;85;29774;-64
2022/08/29 07:13:08;;;;;;;10.05;4.33;;;;;;;22.90;72.63;100601.48;2082328;85;27715;-64
2022/08/29 07:16:17;;;;;;;11.85;4.12;;;;;;;23.21;71.75;100597.14;2081995;85;28704;-63
2022/08/29 07:19:18;;;;;;;8.75;3.65;;;;;;;23.39;70.93;100598.22;2082191;85;31155;-64
2022/08/29 07:22:20;;;;;;;6.50;4.05;;;;;;;23.63;70.73;100604.47;2081010;85;34150;-65
2022/08/29 07:25:22;;;;;;;6.92;3.47;;;;;;;23.82;69.82;100600.23;2053467;85;30241;-64
2022/08/29 07:28:23;;;;;;;11.20;4.12;;;;;;;23.94;69.07;100604.09;2079961;85;27668;-64
2022/08/29 07:31:25;;;;;;;10.58;3.98;;;;;;;24.01;68.58;100604.36;2080681;85;29643;-63
2022/08/29 07:34:27;;;;;;;8.03;4.03;;;;;;;24.19;67.58;100602.47;2080046;85;32389;-63
2022/08/29 07:37:28;;;;;;;11.68;4.35;;;;;;;24.42;66.90;100609.67;2079983;85;33022;-63
2022/08/29 07:40:29;;;;;;;9.60;3.65;;;;;;;24.51;66.02;100610.59;2080056;85;30502;-63
2022/08/29 07:43:32;;;;;;;7.35;3.90;;;;;;;24.56;64.90;100612.35;2080383;85;27695;-64
2022/08/29 07:46:34;;;;;;;10.23;4.28;;;;;;;24.84;65.03;100615.45;2080227;85;28902;-63
2022/08/29 07:49:37;;;;;;;9.50;5.08;;;;;;;25.06;63.90;100614.05;2090115;84;31021;-64
2022/08/29 07:52:39;;;;;;;6.28;3.58;;;;;;;25.23;64.07;100610.86;2103002;84;34236;-64
2022/08/29 07:55:41;;;;;;;9.35;4.20;;;;;;;25.43;62.87;100611.48;2104217;84;30480;-63
2022/08/29 07:58:42;;;;;;;7.62;4.03;;;;;;;25.59;62.28;100615.30;2104263;84;27702;-64
2022/08/29 08:01:44;;;;;;;10.75;3.98;;;;;;;25.74;61.43;100614.98;2104177;84;29903;-64
2022/08/29 08:04:45;;;;;;;7.47;4.35;;;;;;;25.79;59.94;100616.72;2104184;84;32225;-63
2022/08/29 08:07:48;;;;;;;6.97;3.50;;;;;;;25.88;59.77;100622.24;2074382;85;33484;-63
2022/08/29 08:10:49;;;;;;;10.38;4.17;;;;;;;25.98;59.26;100615.23;2074202;85;28515;-64
2022/08/29 08:13:53;;;;;;;8.55;4.42;;;;;;;26.05;58.84;100625.86;2074383;85;27861;-64
2022/08/29 08:16:55;;;;;;;6.83;4.05;;;;;;;26.13;57.70;100621.80;2074149;85;28709;-63
2022/08/29 08:19:56;;;;;;;9.43;4.10;;;;;;;26.22;57.94;100619.38;2074329;85;31531;-63
2022/08/29 08:22:58;;;;;;;8.58;4.60;;;;;;;26.26;56.48;100625.91;2072537;85;33596;-64
2022/08/29 08:26:00;;;;;;;11.63;4.47;;;;;;;26.23;56.11;100618.84;2072071;85;30184;-63
2022/08/29 08:29:03;;;;;;;11.30;4.83;;;;;;;26.32;55.64;100617.84;2072417;85;27725;-64
2022/08/29 08:32:05;;;;;;;6.50;4.30;;;;;;;26.42;56.14;100619.04;2072322;85;29144;-63
2022/08/29 08:35:08;;;;;;;8.15;4.10;;;;;;;26.48;54.99;100625.20;2072378;85;31119;-64
2022/08/29 08:38:09;;;;;;;9.23;4.75;;;;;;;26.49;55.06;100624.17;2072358;85;32965;-64
2022/08/29 08:41:38;;;;;;;8.20;4.20;;;;;;;26.50;54.44;100627.26;2072202;85;30524;-64
2022/08/29 08:45:06;;;;;;;10.85;5.22;;;;;;;26.31;53.53;100623.52;2072474;85;28213;-63
2022/08/29 08:48:23;;;;;;;12.15;3.83;;;;;;;26.01;54.02;100624.47;2072499;85;29877;-64
2022/08/29 08:51:29;;;;;;;8.58;4.10;;;;;;;25.92;55.00;100623.10;2031923;87;31440;-63
2022/08/29 08:54:36;;;;;;;15.95;4.70;;;;;;;25.77;54.11;100622.89;2035491;87;33074;-62
2022/08/29 08:57:43;;;;;;;10.98;4.78;;;;;;;25.56;52.97;100630.22;2035393;87;28775;-65
2022/08/29 09:00:53;;;;;;;10.93;4.50;;;;;;;25.35;52.80;100623.77;2082203;85;27718;-64
2022/08/29 09:04:03;;;;;;;10.58;4.50;;;;;;;25.20;53.54;100630.37;2059416;85;29744;-65
2022/08/29 09:07:35;;;;;;;11.12;4.35;;;;;;;25.03;52.66;100623.44;2082267;85;30776;-65
2022/08/29 09:10:55;;;;;;;10.70;4.42;;;;;;;24.92;52.62;100629.70;2081786;85;33671;-64
2022/08/29 09:14:17;;;;;;;11.85;4.30;;;;;;;24.79;52.91;100622.79;2082338;85;29861;-64
2022/08/29 09:17:31;;;;;;;7.10;4.22;;;;;;;24.80;53.27;100617.66;2006626;88;28009;-64
2022/08/29 09:20:36;;;;;;;12.03;4.53;;;;;;;24.83;52.70;100624.69;2007690;88;29581;-65
2022/08/29 09:23:46;;;;;;;7.80;3.98;;;;;;;24.83;52.56;100630.16;1987788;88;31058;-65
2022/08/29 09:26:48;;;;;;;7.65;4.30;;;;;;;24.81;52.19;100629.50;2007563;88;32998;-64
2022/08/29 09:30:18;;;;;;;11.20;4.10;;;;;;;24.71;51.99;100626.86;2007488;88;29374;-64
2022/08/29 09:33:19;;;;;;;10.82;4.10;;;;;;;24.62;51.72;100620.44;2005546;88;27732;-65
2022/08/29 09:36:35;;;;;;;11.60;4.30;;;;;;;24.55;52.23;100617.48;2007593;88;30054;-64
2022/08/29 09:39:36;;;;;;;9.65;4.17;;;;;;;24.50;51.96;100625.30;2007513;88;31439;-63
2022/08/29 09:42:41;;;;;;;13.53;4.37;;;;;;;24.46;51.76;100629.38;2007224;88;33099;-65
2022/08/29 09:46:08;;;;;;;8.98;3.92;;;;;;;24.35;51.87;100624.16;2006875;88;30160;-64
2022/08/29 09:49:14;;;;;;;11.03;4.30;;;;;;;24.18;51.05;100629.98;2006177;88;27985;-64
2022/08/29 09:52:21;;;;;;;7.75;3.33;;;;;;;23.98;51.45;100624.70;1998593;89;29546;-64
2022/08/29 09:55:34;;;;;;;8.85;4.00;;;;;;;23.78;51.09;100629.40;1994845;89;32290;-62
2022/08/29 09:58:41;;;;;;;12.80;5.20;;;;;;;23.49;51.14;100627.23;1994527;89;34142;-63
2022/08/29 10:01:42;;;;;;;9.75;3.80;;;;;;;23.32;51.36;100626.67;1994822;89;30194;-64
2022/08/29 10:04:49;;;;;;;9.65;3.83;;;;;;;23.23;52.21;100627.08;1975904;89;27641;-65
2022/08/29 10:07:53;;;;;;;8.00;3.67;;;;;;;23.19;52.24;100626.45;1994789;88;27746;-63
2022/08/29 10:10:58;;;;;;;7.60;3.77;;;;;;;23.29;52.39;100620.14;1994584;89;31517;-64
2022/08/29 10:14:10;;;;;;;9.85;3.77;;;;;;;23.40;52.32;100621.81;1996176;89;33680;-65
2022/08/29 10:21:19;;;;;;;6.30;3.10;;;;;;;23.41;52.49;100627.63;2034360;87;27777;-63
2022/08/29 10:24:55;;;;;;;6.62;3.00;;;;;;;23.46;51.73;100623.91;2034171;87;29968;-63
2022/08/29 10:28:27;;;;;;;14.03;3.50;;;;;;;23.46;51.54;100629.38;2034402;86;31841;-65
2022/08/29 10:31:44;;;;;;;8.58;3.22;;;;;;;23.47;51.49;100626.52;2015299;87;28225;-66
2022/08/29 10:35:03;;;;;;;8.33;3.50;;;;;;;23.54;51.34;100627.25;2027439;87;29518;-66
2022/08/29 10:38:28;;;;;;;6.50;2.60;;;;;;;23.69;52.15;100623.50;2033810;87;27729;-66
2022/08/29 10:41:47;;;;;;;6.58;3.30;;;;;;;23.95;51.75;100614.03;2034124;87;28611;-66
2022/08/29 10:45:24;;;;;;;10.68;3.33;;;;;;;24.08;51.54;100614.52;2032584;87;31538;-66
2022/08/29 10:48:30;;;;;;;8.18;3.35;;;;;;;24.13;51.47;100616.78;2033467;87;33813;-65
2022/08/29 10:51:37;;;;;;;12.75;3.55;;;;;;;24.14;51.38;100621.23;2083394;84;29714;-67
2022/08/29 10:55:07;;;;;;;8.05;3.27;;;;;;;24.14;51.31;100614.39;2098117;84;27720;-68
2022/08/29 10:58:34;;;;;;;7.78;3.20;;;;;;;24.04;50.72;100615.84;2098068;84;28668;-67
2022/08/29 11:01:44;;;;;;;7.62;3.20;;;;;;;23.91;50.79;100614.82;2097920;84;31439;-67
2022/08/29 11:04:53;;;;;;;7.15;3.25;;;;;;;23.80;50.72;100609.59;2097336;84;33347;-66
2022/08/29 11:08:10;;;;;;;5.37;2.87;;;;;;;23.75;51.01;100617.39;2097606;84;29803;-66
2022/08/29 11:11:17;;;;;;;8.38;3.50;;;;;;;23.74;50.86;100608.34;2097530;84;28321;-68
2022/08/29 11:14:29;;;;;;;9.08;3.00;;;;;;;23.67;50.78;100618.16;2096470;84;28304;-66
2022/08/29 11:17:39;;;;;;;10.68;3.85;;;;;;;23.58;50.45;100610.37;2096057;84;31041;-67
2022/08/29 11:21:01;;;;;;;5.92;3.00;;;;;;;23.43;50.39;100614.16;2095902;84;32399;-67
2022/08/29 11:24:06;;;;;;;7.20;2.72;;;;;;;23.30;50.45;100610.92;2095227;84;30553;-66
2022/08/29 11:27:20;;;;;;;;;;;;;;;23.20;50.92;100611.81;2098684;84;27654;-67
2022/08/29 11:30:33;;;;;;;10.20;3.70;;;;;;;23.17;51.12;100611.23;2095945;84;29080;-66
2022/08/29 11:33:49;;;;;;;6.72;3.22;;;;;;;23.14;51.29;100610.16;2095920;84;31423;-65
2022/08/29 11:37:10;;;;;;;10.15;3.33;;;;;;;23.12;51.27;100610.81;2095333;84;33504;-68
2022/08/29 11:40:59;;;;;;;6.75;2.90;;;;;;;23.08;51.23;100615.73;2088523;84;27792;-65
2022/08/29 11:44:27;;;;;;;11.12;3.35;;;;;;;23.03;51.29;100620.28;2092702;84;27646;-66
2022/08/29 11:47:40;;;;;;;6.58;2.83;;;;;;;23.01;51.43;100619.57;2096105;84;29372;-66
2022/08/29 11:50:42;;;;;;;9.40;3.20;;;;;;;23.03;51.62;100616.19;2084118;84;32300;-66
2022/08/29 11:53:43;;;;;;;5.45;3.08;;;;;;;23.05;51.71;100610.55;2063054;86;33061;-67
2022/08/29 11:56:45;;;;;;;7.08;2.90;;;;;;;23.06;51.75;100613.65;2046766;86;30099;-66
2022/08/29 11:59:53;;;;;;;10.20;3.30;;;;;;;23.05;51.48;100616.02;2064038;86;28259;-66
2022/08/29 12:02:54;;;;;;;7.47;3.08;;;;;;;23.04;51.74;100622.01;2063903;86;28677;-66
2022/08/29 12:06:27;;;;;;;9.73;3.22;;;;;;;22.99;51.50;100611.17;2063632;86;30976;-66
2022/08/29 12:09:37;;;;;;;12.07;3.45;;;;;;;22.96;51.97;100612.84;2063737;86;34000;-67
2022/08/29 12:12:46;;;;;;;7.58;3.72;;;;;;;22.95;52.09;100611.96;2063606;86;29730;-67
2022/08/29 12:15:53;;;;;;;8.58;3.27;;;;;;;22.97;51.73;100611.83;2062004;86;27711;-66
2022/08/29 12:18:56;;;;;;;8.48;3.75;;;;;;;22.97;52.19;100613.20;2062224;86;28638;-67
2022/08/29 12:21:59;;;;;;;9.50;2.50;;;;;;;22.99;52.25;100602.98;2062125;86;31023;-66
2022/08/29 12:25:25;;;;;;;6.90;2.95;;;;;;;23.01;52.14;100600.93;2062095;86;32371;-66
2022/08/29 12:28:35;;;;;;;;;;;;;;;23.00;51.93;100599.23;2064717;86;29377;-66
2022/08/29 12:31:51;;;;;;;13.15;3.10;;;;;;;22.92;51.13;100590.39;2062239;86;27718;-65
2022/08/29 12:35:27;;;;;;;9.78;2.70;;;;;;;22.84;51.76;100595.77;2061756;86;28670;-65
2022/08/29 12:39:13;;;;;;;6.83;2.40;;;;;;;22.82;51.98;100590.46;2001909;88;31183;-66
2022/08/29 12:42:47;;;;;;;6.33;2.87;;;;;;;22.80;51.55;100592.48;2001956;88;33346;-66
2022/08/29 12:45:49;;;;;;;10.85;2.62;;;;;;;22.76;51.58;100593.78;2003162;88;29738;-66
2022/08/29 12:49:05;;;;;;;6.60;2.95;;;;;;;22.74;51.11;100591.69;2003341;88;27743;-66
2022/08/29 12:52:21;;;;;;;8.58;3.50;;;;;;;22.72;51.90;100586.88;2003101;87;28563;-66
2022/08/29 12:55:35;;;;;;;8.75;3.25;;;;;;;22.74;51.84;100582.13;2000077;88;30553;-65
2022/08/29 12:58:43;;;;;;;10.83;3.10;;;;;;;22.72;51.77;100578.20;2003258;88;34224;-66
2022/08/29 13:01:51;;;;;;;5.65;3.12;;;;;;;22.73;51.81;100581.77;2003425;88;28812;-65
2022/08/29 13:04:53;;;;;;;6.62;2.72;;;;;;;22.67;51.38;100584.60;2003556;88;27787;-65
2022/08/29 13:08:12;;;;;;;11.48;3.25;;;;;;;22.64;51.64;100586.78;2003199;88;29244;-66
2022/08/29 13:11:19;;;;;;;7.55;2.98;;;;;;;22.61;52.07;100576.50;2003393;88;31419;-65
2022/08/29 13:14:20;;;;;;;8.38;3.05;;;;;;;22.63;52.16;100572.77;2010103;86;33425;-66
2022/08/29 13:17:27;;;;;;;19.23;3.87;;;;;;;22.64;52.26;100575.33;2062216;86;29766;-66
2022/08/29 13:20:45;;;;;;;6.62;2.80;;;;;;;22.66;52.14;100570.59;2061918;86;27725;-66
2022/08/29 13:24:04;;;;;;;5.83;3.05;;;;;;;22.65;52.14;100569.39;2020312;87;29612;-67
2022/08/29 13:27:08;;;;;;;7.03;3.50;;;;;;;22.64;52.12;100578.06;2044941;86;31439;-66
2022/08/29 13:30:22;;;;;;;6.78;3.05;;;;;;;22.65;52.43;100568.87;2044877;86;35172;-66
2022/08/29 13:33:26;;;;;;;9.08;3.17;;;;;;;22.66;52.25;100564.28;2069958;86;29339;-66
2022/08/29 13:36:49;;;;;;;;;;;;;;;22.65;52.44;100566.66;2072897;86;27574;-66
2022/08/29 13:39:50;;;;;;;7.45;3.02;;;;;;;22.67;52.26;100558.66;2069823;85;29847;-66
2022/08/29 13:42:52;;;;;;;12.10;3.55;;;;;;;22.67;52.58;100560.55;2070267;86;31978;-66
2022/08/29 13:46:17;;;;;;;15.18;3.15;;;;;;;22.68;52.42;100554.05;2069937;86;33380;-66
2022/08/29 13:49:23;;;;;;;10.38;4.33;;;;;;;22.67;52.56;100550.47;2070307;86;29713;-66
2022/08/29 13:52:26;;;;;;;6.72;3.12;;;;;;;22.65;52.21;100549.75;2069217;84;27814;-67
2022/08/29 13:55:28;;;;;;;9.88;3.25;;;;;;;22.61;52.18;100545.59;2068514;86;29899;-66
2022/08/29 13:58:30;;;;;;;5.80;3.55;;;;;;;22.54;52.04;100530.30;2068388;86;31728;-67
2022/08/29 14:01:32;;;;;;;6.65;2.70;;;;;;;22.53;52.23;100545.48;2010396;87;34008;-66
2022/08/29 14:04:34;;;;;;;6.08;2.83;;;;;;;22.52;52.28;100541.87;2068685;85;29786;-67
2022/08/29 14:07:37;;;;;;;8.15;3.10;;;;;;;22.52;52.27;100537.78;2068433;86;27643;-66
2022/08/29 14:10:39;;;;;;;7.80;2.90;;;;;;;22.52;52.47;100539.66;2068634;86;28825;-66
2022/08/29 14:13:41;;;;;;;6.85;2.90;;;;;;;22.52;52.17;100543.24;2069536;86;31899;-66
2022/08/29 14:16:44;;;;;;;8.03;2.90;;;;;;;22.54;52.59;100543.11;2070417;86;33343;-66
2022/08/29 14:19:46;;;;;;;7.10;2.62;;;;;;;22.53;52.30;100540.88;2070448;86;30132;-66
2022/08/29 14:22:47;;;;;;;7.60;3.50;;;;;;;22.52;52.39;100544.61;2070353;86;27627;-67
2022/08/29 14:25:49;;;;;;;6.95;3.22;;;;;;;22.50;52.27;100538.95;2070350;86;29848;-66
2022/08/29 14:28:51;;;;;;;6.50;3.30;;;;;;;22.51;52.06;100542.04;2070433;86;31539;-67